createdAt,value
2022-12-27T00:02:21.163Z,46.50
2022-12-27T00:04:48.560Z,47.75
2022-12-27T00:07:15.955Z,46.75
2022-12-27T00:09:43.305Z,46.97
2022-12-27T00:12:11.744Z,46.78
2022-12-27T00:14:39.235Z,48.85
2022-12-27T00:17:06.652Z,48.83
2022-12-27T00:19:33.971Z,48.17
2022-12-27T00:22:01.582Z,48.20
2022-12-27T00:24:29.084Z,48.28
2022-12-27T00:26:56.458Z,46.70
2022-12-27T00:29:24.791Z,48.13
2022-12-27T00:31:52.195Z,46.80
2022-12-27T00:34:19.630Z,48.45
2022-12-27T00:36:46.958Z,48.97
2022-12-27T00:39:14.455Z,48.20
2022-12-27T00:41:41.836Z,48.63
2022-12-27T00:44:09.303Z,49.13
2022-12-27T00:46:36.722Z,49.67
2022-12-27T00:49:04.080Z,48.92
2022-12-27T00:51:31.461Z,49.53
2022-12-27T00:53:58.793Z,49.63
2022-12-27T00:56:29.428Z,48.20
2022-12-27T00:59:03.381Z,49.28
2022-12-27T01:01:34.956Z,49.65
2022-12-27T01:04:03.657Z,49.05
2022-12-27T01:06:32.887Z,49.63
2022-12-27T01:09:01.529Z,50.22
2022-12-27T01:11:29.678Z,49.75
2022-12-27T01:13:59.359Z,49.85
2022-12-27T01:16:28.706Z,48.00
2022-12-27T01:18:57.006Z,49.85
2022-12-27T01:21:25.357Z,49.57
2022-12-27T01:23:52.780Z,50.22
2022-12-27T01:26:22.647Z,50.10
2022-12-27T01:28:50.463Z,49.38
2022-12-27T01:31:24.873Z,48.30
2022-12-27T01:33:59.875Z,50.60
2022-12-27T01:36:29.381Z,52.22
2022-12-27T01:38:59.087Z,50.38
2022-12-27T01:41:47.678Z,51.95
2022-12-27T01:44:40.200Z,49.92
2022-12-27T01:47:10.732Z,50.73
2022-12-27T01:49:46.164Z,52.40
2022-12-27T01:52:15.531Z,51.45
2022-12-27T01:54:43.263Z,49.97
2022-12-27T01:57:11.195Z,51.58
2022-12-27T01:59:39.577Z,52.03
2022-12-27T02:02:07.215Z,52.13
2022-12-27T02:04:36.059Z,49.75
2022-12-27T02:07:04.863Z,51.20
2022-12-27T02:09:42.243Z,50.08
2022-12-27T02:12:10.901Z,50.97
2022-12-27T02:14:38.647Z,50.97
2022-12-27T02:17:16.117Z,51.70
2022-12-27T02:20:12.972Z,50.07
2022-12-27T02:23:21.729Z,49.45
2022-12-27T02:26:03.152Z,49.40
2022-12-27T02:28:33.380Z,48.72
2022-12-27T02:31:12.448Z,48.58
2022-12-27T02:33:47.028Z,49.15
2022-12-27T02:36:23.202Z,49.90
2022-12-27T02:38:54.960Z,49.75
2022-12-27T02:41:40.642Z,48.45
2022-12-27T02:44:26.479Z,48.30
2022-12-27T02:47:12.890Z,49.17
2022-12-27T02:50:02.236Z,50.70
2022-12-27T02:53:08.324Z,48.20
2022-12-27T02:56:04.270Z,48.40
2022-12-27T02:58:40.723Z,48.65
2022-12-27T03:01:35.753Z,48.95
2022-12-27T03:04:25.921Z,47.57
2022-12-27T03:07:13.758Z,47.65
2022-12-27T03:10:16.404Z,48.57
2022-12-27T03:13:08.042Z,48.65
2022-12-27T03:15:53.907Z,49.35
2022-12-27T03:18:51.736Z,48.78
2022-12-27T03:21:58.125Z,48.85
2022-12-27T03:24:54.172Z,48.10
2022-12-27T03:27:33.345Z,48.10
2022-12-27T03:30:23.871Z,48.38
2022-12-27T03:33:14.469Z,47.30
2022-12-27T03:36:18.075Z,50.05
2022-12-27T03:38:57.792Z,47.97
2022-12-27T03:41:49.254Z,47.35
2022-12-27T03:44:26.232Z,49.13
2022-12-27T03:47:05.689Z,47.97
2022-12-27T03:49:48.687Z,46.63
2022-12-27T03:52:22.063Z,48.08
2022-12-27T03:54:51.603Z,47.75
2022-12-27T03:57:21.795Z,48.03
2022-12-27T03:59:49.302Z,46.47
2022-12-27T04:02:16.844Z,47.40
2022-12-27T04:04:44.299Z,47.30
2022-12-27T04:07:13.897Z,46.60
2022-12-27T04:10:00.854Z,48.85
2022-12-27T04:12:46.725Z,46.58
2022-12-27T04:15:32.545Z,46.55
2022-12-27T04:18:18.593Z,47.30
2022-12-27T04:21:05.365Z,46.78
2022-12-27T04:23:51.214Z,47.50
2022-12-27T04:26:36.993Z,47.78
2022-12-27T04:29:22.919Z,46.85
2022-12-27T04:32:08.651Z,45.97
2022-12-27T04:34:45.152Z,46.22
2022-12-27T04:37:18.193Z,46.67
2022-12-27T04:40:06.891Z,47.00
2022-12-27T04:42:52.962Z,45.55
2022-12-27T04:45:39.098Z,46.80
2022-12-27T04:48:32.526Z,47.90
2022-12-27T04:51:19.271Z,46.42
2022-12-27T04:54:05.227Z,47.25
2022-12-27T04:56:32.585Z,46.60
2022-12-27T04:59:18.567Z,46.78
2022-12-27T05:02:04.097Z,48.33
2022-12-27T05:04:34.796Z,48.60
2022-12-27T05:07:22.803Z,47.33
2022-12-27T05:10:09.267Z,46.53
2022-12-27T05:12:55.018Z,47.40
2022-12-27T05:15:22.476Z,46.13
2022-12-27T05:17:50.393Z,46.33
2022-12-27T05:20:17.863Z,46.40
2022-12-27T05:23:03.709Z,46.45
2022-12-27T05:25:38.378Z,46.63
2022-12-27T05:28:09.417Z,46.00
2022-12-27T05:30:38.981Z,44.97
2022-12-27T05:33:06.820Z,43.00
2022-12-27T05:35:34.624Z,43.35
2022-12-27T05:38:02.529Z,44.55
2022-12-27T05:40:30.285Z,43.60
2022-12-27T05:43:01.891Z,43.67
2022-12-27T05:45:30.101Z,41.90
2022-12-27T05:47:58.802Z,42.50
2022-12-27T05:50:26.257Z,42.05
2022-12-27T05:52:53.575Z,42.50
2022-12-27T05:55:20.951Z,41.95
2022-12-27T05:57:48.375Z,41.35
2022-12-27T06:00:16.136Z,42.70
2022-12-27T06:02:43.698Z,43.67
2022-12-27T06:05:11.338Z,42.63
2022-12-27T06:07:39.241Z,41.70
2022-12-27T06:10:09.203Z,41.03
2022-12-27T06:12:37.356Z,42.28
2022-12-27T06:15:06.722Z,40.83
2022-12-27T06:17:34.094Z,41.95
2022-12-27T06:20:01.466Z,41.75
2022-12-27T06:22:28.869Z,40.47
2022-12-27T06:24:56.141Z,37.58
2022-12-27T06:27:23.492Z,36.47
2022-12-27T06:29:50.814Z,36.40
2022-12-27T06:32:18.278Z,37.63
2022-12-27T06:34:45.901Z,36.35
2022-12-27T06:37:13.257Z,34.17
2022-12-27T06:39:40.569Z,34.00
2022-12-27T06:42:07.852Z,33.40
2022-12-27T06:44:35.248Z,31.10
2022-12-27T06:47:02.862Z,30.23
2022-12-27T06:49:30.244Z,31.08
2022-12-27T06:51:59.856Z,30.45
2022-12-27T06:54:27.891Z,30.23
2022-12-27T06:56:56.863Z,29.90
2022-12-27T06:59:24.804Z,29.65
2022-12-27T07:01:52.385Z,29.70
2022-12-27T07:04:20.889Z,29.30
2022-12-27T07:06:48.222Z,27.70
2022-12-27T07:09:15.572Z,27.75
2022-12-27T07:11:42.944Z,28.05
2022-12-27T07:14:10.805Z,27.58
2022-12-27T07:16:38.412Z,27.67
2022-12-27T07:19:05.859Z,27.88
2022-12-27T07:21:33.364Z,26.48
2022-12-27T07:24:00.737Z,27.20
2022-12-27T07:26:30.588Z,26.92
2022-12-27T07:29:01.378Z,27.88
2022-12-27T07:31:31.660Z,28.05
2022-12-27T07:34:01.630Z,26.35
2022-12-27T07:36:33.665Z,27.57
2022-12-27T07:39:01.079Z,26.92
2022-12-27T07:41:28.503Z,26.73
2022-12-27T07:43:55.892Z,27.27
2022-12-27T07:46:25.766Z,28.33
2022-12-27T07:48:55.436Z,27.70
2022-12-27T07:51:23.515Z,29.27
2022-12-27T07:53:51.925Z,30.73
2022-12-27T07:56:26.799Z,32.05
2022-12-27T07:58:56.844Z,30.73
2022-12-27T08:01:26.376Z,31.92
2022-12-27T08:03:54.304Z,32.30
2022-12-27T08:06:26.931Z,31.55
2022-12-27T08:08:55.295Z,31.60
2022-12-27T08:11:23.222Z,31.95
2022-12-27T08:13:50.628Z,30.17
2022-12-27T08:16:21.838Z,31.75
2022-12-27T08:18:49.568Z,32.55
2022-12-27T08:21:16.928Z,31.90
2022-12-27T08:23:44.429Z,32.17
2022-12-27T08:26:11.789Z,33.80
2022-12-27T08:28:39.176Z,33.60
2022-12-27T08:31:08.528Z,32.05
2022-12-27T08:33:37.063Z,34.50
2022-12-27T08:36:53.592Z,33.78
2022-12-27T08:38:55.844Z,34.45
2022-12-27T08:41:23.485Z,33.60
2022-12-27T08:43:50.887Z,34.15
2022-12-27T08:46:21.025Z,31.65
2022-12-27T08:48:49.101Z,32.22
2022-12-27T08:51:26.279Z,31.63
2022-12-27T08:53:59.043Z,34.30
2022-12-27T08:56:26.414Z,35.40
2022-12-27T08:58:53.899Z,35.40
2022-12-27T09:01:21.592Z,38.33
2022-12-27T09:03:49.128Z,37.33
2022-12-27T09:06:19.479Z,38.13
2022-12-27T09:08:48.136Z,37.03
2022-12-27T09:11:21.075Z,37.00
2022-12-27T09:13:48.521Z,37.30
2022-12-27T09:16:21.402Z,38.30
2022-12-27T09:18:51.917Z,38.60
2022-12-27T09:21:21.106Z,40.40
2022-12-27T09:23:49.656Z,40.30
2022-12-27T09:26:26.426Z,37.45
2022-12-27T09:28:54.584Z,38.83
2022-12-27T09:31:23.907Z,33.67
2022-12-27T09:33:52.634Z,37.35
2022-12-27T09:36:25.342Z,38.38
2022-12-27T09:38:54.341Z,38.73
2022-12-27T09:44:51.126Z,37.85
2022-12-27T09:47:34.234Z,38.92
2022-12-27T09:50:06.482Z,38.55
2022-12-27T09:52:54.506Z,39.40
2022-12-27T09:55:27.443Z,41.10
2022-12-27T09:58:05.698Z,39.58
2022-12-27T10:00:35.175Z,39.03
2022-12-27T10:03:06.322Z,39.87
2022-12-27T10:05:37.219Z,39.70
2022-12-27T10:08:32.517Z,38.92
2022-12-27T10:11:36.014Z,37.75
2022-12-27T10:14:19.043Z,37.85
2022-12-27T10:17:01.241Z,38.90
2022-12-27T10:19:40.565Z,37.40
2022-12-27T10:22:33.752Z,38.20
2022-12-27T10:25:05.503Z,38.13
2022-12-27T10:27:32.868Z,39.97
2022-12-27T10:30:01.408Z,37.85
2022-12-27T10:32:28.798Z,38.33
2022-12-27T10:35:01.681Z,38.35
2022-12-27T10:37:30.213Z,38.08
2022-12-27T10:40:15.006Z,37.75
2022-12-27T10:42:57.916Z,38.97
2022-12-27T10:45:36.306Z,38.87
2022-12-27T10:48:12.591Z,38.90
2022-12-27T10:51:03.890Z,39.53
2022-12-27T10:53:34.152Z,39.50
2022-12-27T10:56:21.226Z,39.47
2022-12-27T10:58:58.470Z,39.53
2022-12-27T11:01:29.227Z,39.80
2022-12-27T11:04:17.929Z,39.47
2022-12-27T11:06:51.611Z,37.55
2022-12-27T11:09:39.248Z,37.45
2022-12-27T11:12:26.052Z,36.78
2022-12-27T11:15:00.861Z,38.58
2022-12-27T11:17:46.671Z,37.25
2022-12-27T11:20:37.711Z,37.47
2022-12-27T11:23:15.400Z,36.72
2022-12-27T11:26:06.429Z,37.38
2022-12-27T11:28:46.068Z,38.40
2022-12-27T11:31:16.431Z,38.45
2022-12-27T11:33:52.897Z,38.10
2022-12-27T11:36:32.429Z,39.30
2022-12-27T11:39:00.848Z,39.80
2022-12-27T11:41:49.816Z,38.40
2022-12-27T11:44:31.627Z,39.00
2022-12-27T11:47:34.820Z,38.67
2022-12-27T11:50:10.959Z,40.17
2022-12-27T11:52:59.830Z,38.33
2022-12-27T11:55:57.324Z,38.83
2022-12-27T11:58:54.900Z,37.65
2022-12-27T12:01:27.254Z,38.03
2022-12-27T12:03:55.210Z,37.88
2022-12-27T12:06:52.162Z,39.77
2022-12-27T12:09:49.854Z,39.50
2022-12-27T12:12:38.831Z,39.40
2022-12-27T12:15:27.702Z,39.10
2022-12-27T12:18:00.861Z,39.40
2022-12-27T12:20:52.893Z,39.40
2022-12-27T12:23:54.053Z,39.53
2022-12-27T12:26:23.907Z,38.50
2022-12-27T12:29:18.930Z,37.80
2022-12-27T12:32:19.853Z,38.17
2022-12-27T12:35:05.022Z,38.53
2022-12-27T12:37:41.106Z,38.60
2022-12-27T12:40:52.449Z,40.00
2022-12-27T12:43:56.925Z,40.92
2022-12-27T12:46:47.316Z,41.72
2022-12-27T12:49:30.701Z,42.92
2022-12-27T12:52:04.244Z,39.72
2022-12-27T12:54:40.617Z,39.60
2022-12-27T12:57:27.010Z,37.97
2022-12-27T13:00:29.382Z,37.75
2022-12-27T13:03:15.802Z,38.03
2022-12-27T13:06:11.020Z,38.42
2022-12-27T13:08:49.149Z,39.80
2022-12-27T13:11:33.627Z,39.10
2022-12-27T13:14:00.979Z,40.38
2022-12-27T13:16:48.248Z,40.97
2022-12-27T13:19:47.616Z,41.47
2022-12-27T13:22:53.087Z,41.75
2022-12-27T13:25:45.756Z,41.55
2022-12-27T13:28:43.981Z,39.58
2022-12-27T13:31:20.337Z,41.95
2022-12-27T13:34:22.748Z,43.13
2022-12-27T13:37:20.849Z,43.85
2022-12-27T13:40:06.587Z,44.40
2022-12-27T13:43:19.635Z,43.85
2022-12-27T13:46:08.899Z,44.10
2022-12-27T13:48:48.121Z,44.15
2022-12-27T13:51:44.550Z,43.75
2022-12-27T13:54:33.757Z,46.58
2022-12-27T13:57:19.734Z,47.03
2022-12-27T14:00:13.021Z,46.85
2022-12-27T14:03:01.241Z,45.55
2022-12-27T14:05:31.504Z,46.87
2022-12-27T14:08:36.094Z,46.08
2022-12-27T14:11:03.783Z,45.17
2022-12-27T14:13:38.734Z,46.78
2022-12-27T14:16:26.929Z,45.90
2022-12-27T14:18:54.235Z,46.20
2022-12-27T14:21:52.784Z,37.63
2022-12-27T14:24:40.293Z,39.22
2022-12-27T14:27:16.454Z,39.75
2022-12-27T14:30:14.742Z,32.83
2022-12-27T14:32:50.863Z,36.17
2022-12-27T14:35:42.461Z,35.42
2022-12-27T14:38:45.730Z,35.92
2022-12-27T14:41:40.587Z,39.53
2022-12-27T14:44:26.782Z,40.33
2022-12-27T14:47:06.225Z,40.35
2022-12-27T14:49:33.740Z,40.28
2022-12-27T14:52:13.052Z,41.13
2022-12-27T14:55:18.026Z,41.33
2022-12-27T14:58:03.341Z,41.25
2022-12-27T15:01:03.387Z,41.58
2022-12-27T15:03:42.592Z,41.78
2022-12-27T15:06:18.622Z,42.63
2022-12-27T15:09:23.924Z,43.15
2022-12-27T15:12:17.042Z,42.03
2022-12-27T15:14:56.044Z,42.23
2022-12-27T15:17:26.353Z,42.30
2022-12-27T15:20:21.433Z,42.03
2022-12-27T15:23:23.260Z,43.45
2022-12-27T15:25:53.628Z,43.00
2022-12-27T15:29:06.240Z,42.22
2022-12-27T15:31:42.541Z,42.50
2022-12-27T15:34:16.055Z,42.25
2022-12-27T15:36:46.507Z,42.88
2022-12-27T15:39:32.477Z,42.58
2022-12-27T15:42:39.673Z,41.93
2022-12-27T15:45:28.378Z,41.90
2022-12-27T15:48:22.070Z,42.23
2022-12-27T15:51:15.721Z,42.38
2022-12-27T15:54:13.842Z,45.17
2022-12-27T15:56:50.822Z,43.33
2022-12-27T15:59:42.051Z,42.78
2022-12-27T16:02:18.109Z,43.38
2022-12-27T16:05:20.263Z,43.57
2022-12-27T16:07:51.238Z,43.15
2022-12-27T16:10:30.697Z,44.53
2022-12-27T16:13:12.847Z,42.08
2022-12-27T16:15:50.189Z,43.13
2022-12-27T16:18:23.643Z,43.00
2022-12-27T16:20:59.848Z,42.73
2022-12-27T16:23:33.140Z,43.20
2022-12-27T16:26:06.870Z,43.95
2022-12-27T16:28:37.105Z,43.47
2022-12-27T16:31:11.642Z,43.38
2022-12-27T16:33:41.670Z,42.47
2022-12-27T16:36:11.863Z,43.58
2022-12-27T16:38:59.223Z,44.28
2022-12-27T16:41:51.308Z,44.65
2022-12-27T16:44:24.471Z,43.83
2022-12-27T16:47:16.991Z,43.60
2022-12-27T16:50:22.514Z,44.60
2022-12-27T16:52:52.985Z,44.42
2022-12-27T16:56:02.080Z,44.53
2022-12-27T16:58:29.359Z,44.47
2022-12-27T17:00:58.576Z,43.50
2022-12-27T17:03:43.428Z,44.80
2022-12-27T17:06:35.316Z,44.72
2022-12-27T17:09:08.629Z,45.30
2022-12-27T17:11:41.732Z,45.63
2022-12-27T17:14:18.813Z,45.60
2022-12-27T17:16:49.982Z,46.27
2022-12-27T17:19:34.530Z,45.88
2022-12-27T17:22:05.635Z,45.10
2022-12-27T17:24:33.555Z,46.22
2022-12-27T17:27:15.080Z,45.65
2022-12-27T17:30:11.174Z,47.40
2022-12-27T17:32:47.394Z,46.67
2022-12-27T17:35:28.696Z,48.47
2022-12-27T17:38:20.604Z,47.10
2022-12-27T17:41:15.734Z,47.42
2022-12-27T17:44:29.750Z,46.03
2022-12-27T17:47:16.140Z,32.20
2022-12-27T17:49:43.774Z,34.65
2022-12-27T17:52:37.781Z,40.90
2022-12-27T17:55:42.750Z,42.87
2022-12-27T17:58:12.534Z,45.55
2022-12-27T18:01:02.299Z,46.25
2022-12-27T18:03:37.505Z,45.80
2022-12-27T18:06:05.094Z,42.87
2022-12-27T18:08:36.245Z,47.22
2022-12-27T18:11:05.932Z,47.60
2022-12-27T18:13:37.040Z,48.45
2022-12-27T18:16:15.789Z,49.30
2022-12-27T18:18:48.263Z,49.63
2022-12-27T18:21:27.496Z,53.65
2022-12-27T18:23:55.833Z,53.90
2022-12-27T18:26:39.458Z,57.53
2022-12-27T18:29:10.926Z,57.13
2022-12-27T18:31:49.104Z,55.53
2022-12-27T18:34:32.147Z,55.13
2022-12-27T18:37:04.026Z,55.25
2022-12-27T18:40:01.970Z,53.42
2022-12-27T18:42:44.928Z,53.05
2022-12-27T18:45:29.666Z,52.42
2022-12-27T18:48:00.362Z,53.33
2022-12-27T18:50:35.125Z,54.70
2022-12-27T18:53:05.872Z,52.37
2022-12-27T18:55:34.309Z,52.83
2022-12-27T18:58:06.840Z,51.95
2022-12-27T19:00:51.865Z,51.35
2022-12-27T19:03:21.283Z,53.35
2022-12-27T19:06:06.436Z,51.53
2022-12-27T19:08:51.392Z,51.33
2022-12-27T19:11:29.385Z,51.83
2022-12-27T19:14:01.066Z,52.03
2022-12-27T19:16:31.413Z,51.42
2022-12-27T19:19:05.531Z,52.88
2022-12-27T19:21:36.076Z,51.70
2022-12-27T19:24:19.813Z,52.30
2022-12-27T19:26:47.609Z,51.97
2022-12-27T19:29:17.030Z,54.08
2022-12-27T19:31:53.608Z,53.22
2022-12-27T19:34:21.716Z,52.43
2022-12-27T19:36:49.858Z,51.53
2022-12-27T19:39:26.120Z,52.85
2022-12-27T19:42:01.382Z,52.15
2022-12-27T19:44:30.051Z,52.67
2022-12-27T19:46:57.527Z,52.78
2022-12-27T19:49:42.671Z,54.08
2022-12-27T19:52:20.515Z,53.67
2022-12-27T19:54:49.727Z,51.80
2022-12-27T19:57:17.248Z,52.50
2022-12-27T19:59:44.617Z,52.80
2022-12-27T20:02:12.205Z,51.75
2022-12-27T20:04:39.706Z,52.17
2022-12-27T20:07:07.098Z,51.60
2022-12-27T20:09:34.502Z,51.70
2022-12-27T20:12:02.491Z,51.60
2022-12-27T20:14:29.810Z,51.15
2022-12-27T20:16:57.165Z,52.75
2022-12-27T20:19:24.660Z,49.78
2022-12-27T20:21:52.036Z,51.17
2022-12-27T20:24:19.283Z,50.97
2022-12-27T20:26:46.704Z,52.60
2022-12-27T20:29:15.141Z,52.58
2022-12-27T20:31:46.150Z,56.03
2022-12-27T20:34:13.904Z,51.97
2022-12-27T20:36:42.042Z,53.22
2022-12-27T20:39:09.716Z,53.88
2022-12-27T20:41:38.304Z,54.30
2022-12-27T20:44:06.007Z,53.63
2022-12-27T20:46:33.523Z,53.58
2022-12-27T20:49:01.307Z,52.65
2022-12-27T20:51:31.783Z,52.08
2022-12-27T20:54:01.407Z,53.45
2022-12-27T20:56:28.978Z,54.40
2022-12-27T20:58:56.370Z,53.65
2022-12-27T21:01:25.654Z,50.47
2022-12-27T21:03:55.343Z,53.30
2022-12-27T21:06:25.876Z,52.67
2022-12-27T21:08:57.216Z,51.50
2022-12-27T21:11:31.590Z,51.58
2022-12-27T21:14:01.096Z,51.05
2022-12-27T21:16:31.130Z,50.38
2022-12-27T21:19:03.256Z,50.30
2022-12-27T21:21:32.391Z,49.97
2022-12-27T21:24:00.242Z,50.92
2022-12-27T21:26:30.660Z,49.75
2022-12-27T21:28:59.777Z,49.08
2022-12-27T21:31:27.335Z,49.55
2022-12-27T21:33:55.046Z,49.22
2022-12-27T21:36:24.987Z,47.92
2022-12-27T21:38:53.248Z,48.25
2022-12-27T21:41:23.547Z,47.70
2022-12-27T21:43:51.391Z,47.38
2022-12-27T21:46:23.341Z,48.80
2022-12-27T21:48:56.247Z,46.58
2022-12-27T21:51:23.963Z,46.95
2022-12-27T21:53:51.462Z,45.50
2022-12-27T21:56:19.238Z,45.10
2022-12-27T21:58:46.910Z,44.43
2022-12-27T22:01:15.850Z,43.42
2022-12-27T22:03:46.926Z,43.05
2022-12-27T22:06:17.348Z,43.03
2022-12-27T22:08:46.758Z,42.38
2022-12-27T22:11:15.014Z,42.22
2022-12-27T22:13:43.150Z,42.72
2022-12-27T22:16:20.227Z,41.63
2022-12-27T22:18:48.923Z,42.13
2022-12-27T22:21:28.336Z,41.33
2022-12-27T22:23:57.920Z,39.50
2022-12-27T22:26:39.435Z,41.88
2022-12-27T22:29:08.168Z,41.33
2022-12-27T22:31:37.763Z,41.15
2022-12-27T22:34:06.270Z,42.17
2022-12-27T22:36:34.443Z,39.10
2022-12-27T22:39:02.287Z,39.97
2022-12-27T22:41:32.237Z,38.92
2022-12-27T22:44:01.716Z,36.63
2022-12-27T22:46:51.341Z,36.58
2022-12-27T22:49:18.063Z,36.55
2022-12-27T22:51:45.633Z,35.80
2022-12-27T22:54:13.043Z,34.85
2022-12-27T22:56:42.187Z,34.63
2022-12-27T22:59:14.662Z,32.45
2022-12-27T23:01:43.134Z,32.00
2022-12-27T23:04:12.947Z,31.13
2022-12-27T23:06:41.048Z,30.40
2022-12-27T23:09:08.958Z,29.83
2022-12-27T23:11:40.744Z,30.00
2022-12-27T23:14:13.675Z,29.38
2022-12-27T23:16:46.343Z,29.23
2022-12-27T23:19:15.956Z,28.27
2022-12-27T23:21:43.347Z,28.83
2022-12-27T23:24:11.441Z,28.73
2022-12-27T23:26:39.672Z,28.77
2022-12-27T23:29:07.424Z,27.08
2022-12-27T23:31:34.907Z,26.15
2022-12-27T23:34:02.365Z,27.20
2022-12-27T23:36:31.797Z,25.67
2022-12-27T23:38:59.273Z,25.92
2022-12-27T23:41:26.793Z,25.00
2022-12-27T23:43:55.658Z,25.47
2022-12-27T23:46:27.589Z,25.03
2022-12-27T23:48:56.432Z,24.75
2022-12-27T23:51:24.685Z,25.25
2022-12-27T23:53:52.761Z,23.95
2022-12-27T23:56:21.603Z,23.63
2022-12-27T23:58:50.310Z,22.88
